sensor_id;sensor_type;location;lat;lon;timestamp;P1;durP1;ratioP1;P2;durP2;ratioP2
59093;SDS011;44880;52.814;18.270;2023-05-07T00:01:01;17.20;;;9.70;;
59093;SDS011;44880;52.814;18.270;2023-05-07T00:03:34;17.90;;;10.40;;
59093;SDS011;44880;52.814;18.270;2023-05-07T00:06:06;17.00;;;10.30;;
59093;SDS011;44880;52.814;18.270;2023-05-07T00:08:40;15.60;;;10.30;;
59093;SDS011;44880;52.814;18.270;2023-05-07T00:11:12;17.50;;;10.00;;
59093;SDS011;44880;52.814;18.270;2023-05-07T00:13:44;17.40;;;10.00;;
59093;SDS011;44880;52.814;18.270;2023-05-07T00:16:16;17.90;;;10.70;;
59093;SDS011;44880;52.814;18.270;2023-05-07T00:18:47;18.50;;;10.90;;
59093;SDS011;44880;52.814;18.270;2023-05-07T00:21:19;18.70;;;12.10;;
59093;SDS011;44880;52.814;18.270;2023-05-07T00:23:50;19.90;;;12.50;;
59093;SDS011;44880;52.814;18.270;2023-05-07T00:26:25;20.60;;;13.20;;
59093;SDS011;44880;52.814;18.270;2023-05-07T00:28:57;19.00;;;12.70;;
59093;SDS011;44880;52.814;18.270;2023-05-07T00:31:29;23.00;;;13.40;;
59093;SDS011;44880;52.814;18.270;2023-05-07T00:34:01;23.30;;;14.70;;
59093;SDS011;44880;52.814;18.270;2023-05-07T00:36:34;23.00;;;13.40;;
59093;SDS011;44880;52.814;18.270;2023-05-07T00:39:06;21.20;;;12.60;;
59093;SDS011;44880;52.814;18.270;2023-05-07T00:41:37;19.20;;;12.00;;
59093;SDS011;44880;52.814;18.270;2023-05-07T00:44:09;21.10;;;11.80;;
59093;SDS011;44880;52.814;18.270;2023-05-07T00:46:41;19.50;;;12.20;;
59093;SDS011;44880;52.814;18.270;2023-05-07T00:51:43;22.50;;;11.40;;
59093;SDS011;44880;52.814;18.270;2023-05-07T00:54:15;19.90;;;11.90;;
59093;SDS011;44880;52.814;18.270;2023-05-07T00:56:47;20.70;;;11.40;;
59093;SDS011;44880;52.814;18.270;2023-05-07T00:59:19;18.60;;;11.60;;
59093;SDS011;44880;52.814;18.270;2023-05-07T01:01:51;20.60;;;12.10;;
59093;SDS011;44880;52.814;18.270;2023-05-07T01:04:23;18.60;;;10.90;;
59093;SDS011;44880;52.814;18.270;2023-05-07T01:06:55;18.70;;;11.00;;
59093;SDS011;44880;52.814;18.270;2023-05-07T01:09:27;18.60;;;10.40;;
59093;SDS011;44880;52.814;18.270;2023-05-07T01:11:59;17.80;;;10.40;;
59093;SDS011;44880;52.814;18.270;2023-05-07T01:14:32;19.40;;;11.30;;
59093;SDS011;44880;52.814;18.270;2023-05-07T01:17:03;19.50;;;11.00;;
59093;SDS011;44880;52.814;18.270;2023-05-07T01:19:36;17.30;;;11.30;;
59093;SDS011;44880;52.814;18.270;2023-05-07T01:22:09;20.10;;;10.80;;
59093;SDS011;44880;52.814;18.270;2023-05-07T01:24:50;17.90;;;11.70;;
59093;SDS011;44880;52.814;18.270;2023-05-07T01:27:22;18.90;;;11.60;;
59093;SDS011;44880;52.814;18.270;2023-05-07T01:29:54;19.10;;;12.10;;
59093;SDS011;44880;52.814;18.270;2023-05-07T01:32:27;19.80;;;12.30;;
59093;SDS011;44880;52.814;18.270;2023-05-07T01:35:01;18.20;;;11.30;;
59093;SDS011;44880;52.814;18.270;2023-05-07T01:37:34;19.60;;;11.40;;
59093;SDS011;44880;52.814;18.270;2023-05-07T01:40:07;17.60;;;10.20;;
59093;SDS011;44880;52.814;18.270;2023-05-07T01:42:39;15.10;;;9.50;;
59093;SDS011;44880;52.814;18.270;2023-05-07T01:47:41;17.40;;;10.20;;
59093;SDS011;44880;52.814;18.270;2023-05-07T01:50:14;18.00;;;9.70;;
59093;SDS011;44880;52.814;18.270;2023-05-07T01:52:47;18.10;;;10.90;;
59093;SDS011;44880;52.814;18.270;2023-05-07T01:55:18;19.40;;;10.60;;
59093;SDS011;44880;52.814;18.270;2023-05-07T01:57:51;19.20;;;10.80;;
59093;SDS011;44880;52.814;18.270;2023-05-07T02:00:23;17.60;;;10.80;;
59093;SDS011;44880;52.814;18.270;2023-05-07T02:02:55;18.00;;;10.40;;
59093;SDS011;44880;52.814;18.270;2023-05-07T02:05:32;18.30;;;10.30;;
59093;SDS011;44880;52.814;18.270;2023-05-07T02:08:09;16.60;;;10.10;;
59093;SDS011;44880;52.814;18.270;2023-05-07T02:10:41;17.00;;;9.70;;
59093;SDS011;44880;52.814;18.270;2023-05-07T02:13:13;16.60;;;9.20;;
59093;SDS011;44880;52.814;18.270;2023-05-07T02:15:44;20.50;;;11.10;;
59093;SDS011;44880;52.814;18.270;2023-05-07T02:18:18;20.20;;;11.40;;
59093;SDS011;44880;52.814;18.270;2023-05-07T02:20:50;18.90;;;10.30;;
59093;SDS011;44880;52.814;18.270;2023-05-07T02:23:23;17.70;;;10.40;;
59093;SDS011;44880;52.814;18.270;2023-05-07T02:25:54;20.70;;;11.00;;
59093;SDS011;44880;52.814;18.270;2023-05-07T02:31:03;19.60;;;10.80;;
59093;SDS011;44880;52.814;18.270;2023-05-07T02:33:35;18.60;;;10.90;;
59093;SDS011;44880;52.814;18.270;2023-05-07T02:36:09;19.00;;;9.50;;
59093;SDS011;44880;52.814;18.270;2023-05-07T02:38:46;17.50;;;9.30;;
59093;SDS011;44880;52.814;18.270;2023-05-07T02:41:18;20.10;;;9.90;;
59093;SDS011;44880;52.814;18.270;2023-05-07T02:43:49;16.80;;;9.30;;
59093;SDS011;44880;52.814;18.270;2023-05-07T02:46:21;16.60;;;10.00;;
59093;SDS011;44880;52.814;18.270;2023-05-07T02:48:59;17.20;;;9.20;;
59093;SDS011;44880;52.814;18.270;2023-05-07T02:51:31;16.50;;;9.40;;
59093;SDS011;44880;52.814;18.270;2023-05-07T02:54:04;16.20;;;9.00;;
59093;SDS011;44880;52.814;18.270;2023-05-07T02:56:36;16.50;;;8.90;;
59093;SDS011;44880;52.814;18.270;2023-05-07T02:59:07;16.70;;;8.80;;
59093;SDS011;44880;52.814;18.270;2023-05-07T03:01:41;18.10;;;9.60;;
59093;SDS011;44880;52.814;18.270;2023-05-07T03:04:14;16.70;;;8.40;;
59093;SDS011;44880;52.814;18.270;2023-05-07T03:06:46;16.20;;;8.60;;
59093;SDS011;44880;52.814;18.270;2023-05-07T03:09:17;18.90;;;8.80;;
59093;SDS011;44880;52.814;18.270;2023-05-07T03:11:49;16.30;;;8.20;;
59093;SDS011;44880;52.814;18.270;2023-05-07T03:14:21;14.40;;;8.80;;
59093;SDS011;44880;52.814;18.270;2023-05-07T03:16:53;16.30;;;9.10;;
59093;SDS011;44880;52.814;18.270;2023-05-07T03:19:24;16.80;;;9.00;;
59093;SDS011;44880;52.814;18.270;2023-05-07T03:21:56;17.10;;;9.20;;
59093;SDS011;44880;52.814;18.270;2023-05-07T03:24:27;15.20;;;9.30;;
59093;SDS011;44880;52.814;18.270;2023-05-07T03:26:59;18.40;;;11.00;;
59093;SDS011;44880;52.814;18.270;2023-05-07T03:29:31;19.30;;;11.20;;
59093;SDS011;44880;52.814;18.270;2023-05-07T03:32:03;19.10;;;10.40;;
59093;SDS011;44880;52.814;18.270;2023-05-07T03:34:35;18.40;;;10.00;;
59093;SDS011;44880;52.814;18.270;2023-05-07T03:37:07;16.80;;;9.50;;
59093;SDS011;44880;52.814;18.270;2023-05-07T03:39:39;19.70;;;9.50;;
59093;SDS011;44880;52.814;18.270;2023-05-07T03:42:11;17.20;;;9.80;;
59093;SDS011;44880;52.814;18.270;2023-05-07T03:44:43;16.80;;;9.60;;
59093;SDS011;44880;52.814;18.270;2023-05-07T03:47:14;17.70;;;9.90;;
59093;SDS011;44880;52.814;18.270;2023-05-07T03:50:00;17.20;;;10.10;;
59093;SDS011;44880;52.814;18.270;2023-05-07T03:52:32;15.00;;;9.10;;
59093;SDS011;44880;52.814;18.270;2023-05-07T03:55:04;18.60;;;9.90;;
59093;SDS011;44880;52.814;18.270;2023-05-07T03:58:00;18.90;;;9.90;;
59093;SDS011;44880;52.814;18.270;2023-05-07T04:00:32;17.40;;;9.60;;
59093;SDS011;44880;52.814;18.270;2023-05-07T04:03:09;15.60;;;8.40;;
59093;SDS011;44880;52.814;18.270;2023-05-07T04:05:41;14.00;;;8.10;;
59093;SDS011;44880;52.814;18.270;2023-05-07T04:08:13;15.90;;;8.20;;
59093;SDS011;44880;52.814;18.270;2023-05-07T04:10:48;14.50;;;8.00;;
59093;SDS011;44880;52.814;18.270;2023-05-07T04:13:35;13.20;;;8.00;;
59093;SDS011;44880;52.814;18.270;2023-05-07T04:16:08;14.50;;;7.70;;
59093;SDS011;44880;52.814;18.270;2023-05-07T04:18:39;14.50;;;8.30;;
59093;SDS011;44880;52.814;18.270;2023-05-07T04:23:55;14.60;;;8.40;;
59093;SDS011;44880;52.814;18.270;2023-05-07T04:31:49;13.30;;;7.40;;
59093;SDS011;44880;52.814;18.270;2023-05-07T04:34:23;18.00;;;8.20;;
59093;SDS011;44880;52.814;18.270;2023-05-07T04:37:11;15.60;;;8.00;;
59093;SDS011;44880;52.814;18.270;2023-05-07T04:39:42;13.60;;;7.00;;
59093;SDS011;44880;52.814;18.270;2023-05-07T04:42:17;15.90;;;7.40;;
59093;SDS011;44880;52.814;18.270;2023-05-07T04:47:46;12.30;;;6.40;;
59093;SDS011;44880;52.814;18.270;2023-05-07T04:50:18;12.90;;;6.70;;
59093;SDS011;44880;52.814;18.270;2023-05-07T04:53:09;12.10;;;6.70;;
59093;SDS011;44880;52.814;18.270;2023-05-07T04:55:41;14.80;;;8.00;;
59093;SDS011;44880;52.814;18.270;2023-05-07T04:58:35;14.00;;;7.90;;
59093;SDS011;44880;52.814;18.270;2023-05-07T05:01:07;14.00;;;7.40;;
59093;SDS011;44880;52.814;18.270;2023-05-07T05:03:40;16.20;;;7.80;;
59093;SDS011;44880;52.814;18.270;2023-05-07T05:09:11;13.80;;;7.00;;
59093;SDS011;44880;52.814;18.270;2023-05-07T05:11:44;13.10;;;6.00;;
59093;SDS011;44880;52.814;18.270;2023-05-07T05:14:36;14.70;;;6.50;;
59093;SDS011;44880;52.814;18.270;2023-05-07T05:17:11;12.50;;;6.50;;
59093;SDS011;44880;52.814;18.270;2023-05-07T05:22:42;13.00;;;6.80;;
59093;SDS011;44880;52.814;18.270;2023-05-07T05:25:36;13.70;;;7.10;;
59093;SDS011;44880;52.814;18.270;2023-05-07T05:28:09;12.50;;;6.40;;
59093;SDS011;44880;52.814;18.270;2023-05-07T05:30:41;13.60;;;7.30;;
59093;SDS011;44880;52.814;18.270;2023-05-07T05:33:28;12.10;;;6.60;;
59093;SDS011;44880;52.814;18.270;2023-05-07T05:36:04;12.20;;;6.30;;
59093;SDS011;44880;52.814;18.270;2023-05-07T05:38:41;13.30;;;6.00;;
59093;SDS011;44880;52.814;18.270;2023-05-07T05:44:09;11.70;;;5.50;;
59093;SDS011;44880;52.814;18.270;2023-05-07T05:49:31;10.60;;;5.40;;
59093;SDS011;44880;52.814;18.270;2023-05-07T05:52:05;11.30;;;5.30;;
59093;SDS011;44880;52.814;18.270;2023-05-07T05:57:24;11.10;;;5.60;;
59093;SDS011;44880;52.814;18.270;2023-05-07T05:59:56;10.10;;;5.40;;
59093;SDS011;44880;52.814;18.270;2023-05-07T06:02:29;9.60;;;5.10;;
59093;SDS011;44880;52.814;18.270;2023-05-07T06:05:06;11.70;;;5.10;;
59093;SDS011;44880;52.814;18.270;2023-05-07T06:07:38;12.30;;;5.30;;
59093;SDS011;44880;52.814;18.270;2023-05-07T06:10:16;9.80;;;4.60;;
59093;SDS011;44880;52.814;18.270;2023-05-07T06:13:06;12.30;;;5.20;;
59093;SDS011;44880;52.814;18.270;2023-05-07T06:15:38;10.80;;;4.10;;
59093;SDS011;44880;52.814;18.270;2023-05-07T06:18:12;10.00;;;4.60;;
59093;SDS011;44880;52.814;18.270;2023-05-07T06:21:05;9.30;;;4.90;;
59093;SDS011;44880;52.814;18.270;2023-05-07T06:23:36;11.90;;;5.30;;
59093;SDS011;44880;52.814;18.270;2023-05-07T06:26:27;9.00;;;4.50;;
59093;SDS011;44880;52.814;18.270;2023-05-07T06:28:59;9.20;;;4.60;;
59093;SDS011;44880;52.814;18.270;2023-05-07T06:31:30;11.20;;;4.80;;
59093;SDS011;44880;52.814;18.270;2023-05-07T06:37:03;10.20;;;3.90;;
59093;SDS011;44880;52.814;18.270;2023-05-07T06:40:08;10.30;;;4.40;;
59093;SDS011;44880;52.814;18.270;2023-05-07T06:42:41;9.10;;;3.90;;
59093;SDS011;44880;52.814;18.270;2023-05-07T06:48:24;8.80;;;4.00;;
59093;SDS011;44880;52.814;18.270;2023-05-07T06:51:12;8.90;;;4.10;;
59093;SDS011;44880;52.814;18.270;2023-05-07T06:53:45;8.90;;;4.10;;
59093;SDS011;44880;52.814;18.270;2023-05-07T06:56:25;9.20;;;4.00;;
59093;SDS011;44880;52.814;18.270;2023-05-07T06:59:05;8.60;;;3.80;;
59093;SDS011;44880;52.814;18.270;2023-05-07T07:01:40;10.40;;;3.70;;
59093;SDS011;44880;52.814;18.270;2023-05-07T07:04:20;8.80;;;3.50;;
59093;SDS011;44880;52.814;18.270;2023-05-07T07:07:13;9.60;;;3.90;;
59093;SDS011;44880;52.814;18.270;2023-05-07T07:09:56;9.50;;;4.40;;
59093;SDS011;44880;52.814;18.270;2023-05-07T07:12:37;8.90;;;3.70;;
59093;SDS011;44880;52.814;18.270;2023-05-07T07:15:09;9.00;;;3.60;;
59093;SDS011;44880;52.814;18.270;2023-05-07T07:17:47;10.80;;;4.10;;
59093;SDS011;44880;52.814;18.270;2023-05-07T07:20:22;9.50;;;4.00;;
59093;SDS011;44880;52.814;18.270;2023-05-07T07:22:57;9.00;;;3.60;;
59093;SDS011;44880;52.814;18.270;2023-05-07T07:27:59;9.60;;;4.10;;
59093;SDS011;44880;52.814;18.270;2023-05-07T07:31:10;9.10;;;3.70;;
59093;SDS011;44880;52.814;18.270;2023-05-07T07:33:54;8.60;;;3.80;;
59093;SDS011;44880;52.814;18.270;2023-05-07T07:36:31;9.30;;;4.00;;
59093;SDS011;44880;52.814;18.270;2023-05-07T07:39:04;8.40;;;3.90;;
59093;SDS011;44880;52.814;18.270;2023-05-07T07:42:11;9.40;;;4.40;;
59093;SDS011;44880;52.814;18.270;2023-05-07T07:44:52;8.90;;;3.60;;
59093;SDS011;44880;52.814;18.270;2023-05-07T07:47:52;9.50;;;4.20;;
59093;SDS011;44880;52.814;18.270;2023-05-07T07:51:06;8.70;;;4.10;;
59093;SDS011;44880;52.814;18.270;2023-05-07T07:53:38;9.30;;;4.10;;
59093;SDS011;44880;52.814;18.270;2023-05-07T07:59:16;8.00;;;3.70;;
59093;SDS011;44880;52.814;18.270;2023-05-07T08:02:10;9.40;;;3.70;;
59093;SDS011;44880;52.814;18.270;2023-05-07T08:04:43;9.80;;;3.80;;
59093;SDS011;44880;52.814;18.270;2023-05-07T08:10:04;9.10;;;4.00;;
59093;SDS011;44880;52.814;18.270;2023-05-07T08:12:37;9.50;;;3.90;;
59093;SDS011;44880;52.814;18.270;2023-05-07T08:15:11;8.90;;;3.80;;
59093;SDS011;44880;52.814;18.270;2023-05-07T08:17:59;10.00;;;4.00;;
59093;SDS011;44880;52.814;18.270;2023-05-07T08:20:32;7.80;;;3.50;;
59093;SDS011;44880;52.814;18.270;2023-05-07T08:23:11;8.10;;;3.60;;
59093;SDS011;44880;52.814;18.270;2023-05-07T08:26:07;8.80;;;3.50;;
59093;SDS011;44880;52.814;18.270;2023-05-07T08:31:42;8.80;;;3.70;;
59093;SDS011;44880;52.814;18.270;2023-05-07T08:34:26;8.90;;;4.00;;
59093;SDS011;44880;52.814;18.270;2023-05-07T08:37:22;8.40;;;3.80;;
59093;SDS011;44880;52.814;18.270;2023-05-07T08:42:49;8.20;;;3.30;;
59093;SDS011;44880;52.814;18.270;2023-05-07T08:45:21;8.60;;;3.50;;
59093;SDS011;44880;52.814;18.270;2023-05-07T08:47:58;8.20;;;3.50;;
59093;SDS011;44880;52.814;18.270;2023-05-07T08:50:57;7.50;;;3.20;;
59093;SDS011;44880;52.814;18.270;2023-05-07T08:56:40;7.50;;;2.80;;
59093;SDS011;44880;52.814;18.270;2023-05-07T08:59:13;9.30;;;3.10;;
59093;SDS011;44880;52.814;18.270;2023-05-07T09:01:58;7.60;;;2.90;;
59093;SDS011;44880;52.814;18.270;2023-05-07T09:04:32;7.50;;;2.70;;
59093;SDS011;44880;52.814;18.270;2023-05-07T09:07:07;8.10;;;3.10;;
59093;SDS011;44880;52.814;18.270;2023-05-07T09:09:59;7.10;;;2.80;;
59093;SDS011;44880;52.814;18.270;2023-05-07T09:12:35;7.80;;;3.30;;
59093;SDS011;44880;52.814;18.270;2023-05-07T09:18:08;7.70;;;3.10;;
59093;SDS011;44880;52.814;18.270;2023-05-07T09:21:23;6.90;;;2.70;;
59093;SDS011;44880;52.814;18.270;2023-05-07T09:24:27;8.00;;;2.60;;
59093;SDS011;44880;52.814;18.270;2023-05-07T09:27:11;7.30;;;2.80;;
59093;SDS011;44880;52.814;18.270;2023-05-07T09:30:04;7.90;;;2.90;;
59093;SDS011;44880;52.814;18.270;2023-05-07T09:32:38;7.20;;;2.80;;
59093;SDS011;44880;52.814;18.270;2023-05-07T09:35:40;6.90;;;2.90;;
59093;SDS011;44880;52.814;18.270;2023-05-07T09:38:16;7.80;;;3.00;;
59093;SDS011;44880;52.814;18.270;2023-05-07T09:41:17;7.60;;;2.70;;
59093;SDS011;44880;52.814;18.270;2023-05-07T09:44:01;7.50;;;2.90;;
59093;SDS011;44880;52.814;18.270;2023-05-07T09:46:56;7.60;;;2.80;;
59093;SDS011;44880;52.814;18.270;2023-05-07T09:49:41;7.30;;;2.90;;
59093;SDS011;44880;52.814;18.270;2023-05-07T09:52:45;7.70;;;3.10;;
59093;SDS011;44880;52.814;18.270;2023-05-07T09:55:24;8.70;;;2.90;;
59093;SDS011;44880;52.814;18.270;2023-05-07T09:58:17;6.70;;;2.70;;
59093;SDS011;44880;52.814;18.270;2023-05-07T10:00:51;7.70;;;2.70;;
59093;SDS011;44880;52.814;18.270;2023-05-07T10:03:27;7.80;;;2.90;;
59093;SDS011;44880;52.814;18.270;2023-05-07T10:06:16;7.60;;;2.80;;
59093;SDS011;44880;52.814;18.270;2023-05-07T10:11:49;8.10;;;2.90;;
59093;SDS011;44880;52.814;18.270;2023-05-07T10:14:24;5.80;;;2.50;;
59093;SDS011;44880;52.814;18.270;2023-05-07T10:17:22;6.30;;;2.30;;
59093;SDS011;44880;52.814;18.270;2023-05-07T10:19:55;6.40;;;2.50;;
59093;SDS011;44880;52.814;18.270;2023-05-07T10:22:32;6.50;;;2.80;;
59093;SDS011;44880;52.814;18.270;2023-05-07T10:25:29;6.90;;;2.60;;
59093;SDS011;44880;52.814;18.270;2023-05-07T10:28:12;6.30;;;2.10;;
59093;SDS011;44880;52.814;18.270;2023-05-07T10:31:14;6.60;;;2.50;;
59093;SDS011;44880;52.814;18.270;2023-05-07T10:34:16;7.10;;;2.70;;
59093;SDS011;44880;52.814;18.270;2023-05-07T10:36:49;7.50;;;2.50;;
59093;SDS011;44880;52.814;18.270;2023-05-07T10:45:30;6.50;;;2.80;;
59093;SDS011;44880;52.814;18.270;2023-05-07T10:48:12;6.10;;;2.60;;
59093;SDS011;44880;52.814;18.270;2023-05-07T10:51:21;7.60;;;2.50;;
59093;SDS011;44880;52.814;18.270;2023-05-07T10:54:32;6.80;;;2.50;;
59093;SDS011;44880;52.814;18.270;2023-05-07T11:04:15;7.00;;;2.70;;
59093;SDS011;44880;52.814;18.270;2023-05-07T11:13:51;7.00;;;2.60;;
59093;SDS011;44880;52.814;18.270;2023-05-07T11:17:03;6.30;;;2.40;;
59093;SDS011;44880;52.814;18.270;2023-05-07T11:20:03;7.90;;;2.70;;
59093;SDS011;44880;52.814;18.270;2023-05-07T11:23:12;6.80;;;2.20;;
59093;SDS011;44880;52.814;18.270;2023-05-07T11:26:26;6.40;;;2.20;;
59093;SDS011;44880;52.814;18.270;2023-05-07T11:29:26;6.70;;;2.20;;
59093;SDS011;44880;52.814;18.270;2023-05-07T11:32:04;7.90;;;2.50;;
59093;SDS011;44880;52.814;18.270;2023-05-07T11:35:03;7.50;;;2.60;;
59093;SDS011;44880;52.814;18.270;2023-05-07T11:37:36;8.60;;;2.90;;
59093;SDS011;44880;52.814;18.270;2023-05-07T11:40:17;6.90;;;2.40;;
59093;SDS011;44880;52.814;18.270;2023-05-07T11:43:11;7.50;;;2.60;;
59093;SDS011;44880;52.814;18.270;2023-05-07T11:45:43;7.70;;;3.00;;
59093;SDS011;44880;52.814;18.270;2023-05-07T11:54:19;6.70;;;2.50;;
59093;SDS011;44880;52.814;18.270;2023-05-07T11:56:51;7.70;;;2.20;;
59093;SDS011;44880;52.814;18.270;2023-05-07T11:59:53;7.90;;;2.50;;
59093;SDS011;44880;52.814;18.270;2023-05-07T12:02:26;7.60;;;2.60;;
59093;SDS011;44880;52.814;18.270;2023-05-07T12:05:07;8.60;;;2.40;;
59093;SDS011;44880;52.814;18.270;2023-05-07T12:08:15;6.00;;;2.00;;
59093;SDS011;44880;52.814;18.270;2023-05-07T12:13:56;6.30;;;2.40;;
59093;SDS011;44880;52.814;18.270;2023-05-07T12:17:16;8.00;;;2.40;;
59093;SDS011;44880;52.814;18.270;2023-05-07T12:22:52;6.80;;;2.20;;
59093;SDS011;44880;52.814;18.270;2023-05-07T12:25:45;6.00;;;2.10;;
59093;SDS011;44880;52.814;18.270;2023-05-07T12:28:17;6.50;;;2.70;;
59093;SDS011;44880;52.814;18.270;2023-05-07T12:30:57;5.80;;;2.20;;
59093;SDS011;44880;52.814;18.270;2023-05-07T12:36:24;6.60;;;2.40;;
59093;SDS011;44880;52.814;18.270;2023-05-07T12:42:01;7.80;;;2.50;;
59093;SDS011;44880;52.814;18.270;2023-05-07T12:47:43;6.70;;;2.40;;
59093;SDS011;44880;52.814;18.270;2023-05-07T12:53:16;6.30;;;2.00;;
59093;SDS011;44880;52.814;18.270;2023-05-07T12:58:58;6.80;;;2.30;;
59093;SDS011;44880;52.814;18.270;2023-05-07T13:01:49;6.60;;;2.30;;
59093;SDS011;44880;52.814;18.270;2023-05-07T13:04:23;8.00;;;2.40;;
59093;SDS011;44880;52.814;18.270;2023-05-07T13:07:01;7.10;;;2.40;;
59093;SDS011;44880;52.814;18.270;2023-05-07T13:09:47;7.50;;;2.50;;
59093;SDS011;44880;52.814;18.270;2023-05-07T13:14:55;7.50;;;2.40;;
59093;SDS011;44880;52.814;18.270;2023-05-07T13:17:41;7.40;;;2.50;;
59093;SDS011;44880;52.814;18.270;2023-05-07T13:20:20;6.20;;;2.40;;
59093;SDS011;44880;52.814;18.270;2023-05-07T13:25:58;6.90;;;2.20;;
59093;SDS011;44880;52.814;18.270;2023-05-07T13:31:33;7.50;;;2.60;;
59093;SDS011;44880;52.814;18.270;2023-05-07T13:34:05;7.10;;;2.10;;
59093;SDS011;44880;52.814;18.270;2023-05-07T13:36:56;7.70;;;3.30;;
59093;SDS011;44880;52.814;18.270;2023-05-07T13:42:01;6.20;;;2.10;;
59093;SDS011;44880;52.814;18.270;2023-05-07T13:44:51;6.60;;;2.00;;
59093;SDS011;44880;52.814;18.270;2023-05-07T13:50:28;5.70;;;2.00;;
59093;SDS011;44880;52.814;18.270;2023-05-07T13:53:00;6.40;;;2.30;;
59093;SDS011;44880;52.814;18.270;2023-05-07T13:58:21;6.70;;;2.30;;
59093;SDS011;44880;52.814;18.270;2023-05-07T14:00:53;6.60;;;2.40;;
59093;SDS011;44880;52.814;18.270;2023-05-07T14:06:30;6.10;;;2.40;;
59093;SDS011;44880;52.814;18.270;2023-05-07T14:11:54;6.20;;;2.20;;
59093;SDS011;44880;52.814;18.270;2023-05-07T14:16:56;6.60;;;2.40;;
59093;SDS011;44880;52.814;18.270;2023-05-07T14:19:44;7.00;;;2.30;;
59093;SDS011;44880;52.814;18.270;2023-05-07T14:22:15;6.60;;;2.30;;
59093;SDS011;44880;52.814;18.270;2023-05-07T14:24:55;6.30;;;2.00;;
59093;SDS011;44880;52.814;18.270;2023-05-07T14:27:51;7.60;;;2.20;;
59093;SDS011;44880;52.814;18.270;2023-05-07T14:30:23;6.70;;;2.20;;
59093;SDS011;44880;52.814;18.270;2023-05-07T14:33:17;6.20;;;2.00;;
59093;SDS011;44880;52.814;18.270;2023-05-07T14:35:49;5.70;;;2.10;;
59093;SDS011;44880;52.814;18.270;2023-05-07T14:41:15;6.70;;;2.30;;
59093;SDS011;44880;52.814;18.270;2023-05-07T14:43:53;6.30;;;2.20;;
59093;SDS011;44880;52.814;18.270;2023-05-07T14:46:52;6.70;;;2.30;;
59093;SDS011;44880;52.814;18.270;2023-05-07T14:49:25;6.90;;;2.40;;
59093;SDS011;44880;52.814;18.270;2023-05-07T14:52:11;5.90;;;2.00;;
59093;SDS011;44880;52.814;18.270;2023-05-07T14:54:43;6.80;;;2.50;;
59093;SDS011;44880;52.814;18.270;2023-05-07T14:57:17;7.30;;;2.30;;
59093;SDS011;44880;52.814;18.270;2023-05-07T15:02:50;7.60;;;2.40;;
59093;SDS011;44880;52.814;18.270;2023-05-07T15:05:43;7.30;;;2.50;;
59093;SDS011;44880;52.814;18.270;2023-05-07T15:08:15;7.00;;;2.10;;
59093;SDS011;44880;52.814;18.270;2023-05-07T15:10:46;5.90;;;2.30;;
59093;SDS011;44880;52.814;18.270;2023-05-07T15:13:53;6.20;;;2.00;;
59093;SDS011;44880;52.814;18.270;2023-05-07T15:16:26;6.80;;;2.60;;
59093;SDS011;44880;52.814;18.270;2023-05-07T15:19:13;5.80;;;2.30;;
59093;SDS011;44880;52.814;18.270;2023-05-07T15:21:45;6.40;;;2.40;;
59093;SDS011;44880;52.814;18.270;2023-05-07T15:27:19;6.60;;;2.50;;
59093;SDS011;44880;52.814;18.270;2023-05-07T15:29:54;6.00;;;2.20;;
59093;SDS011;44880;52.814;18.270;2023-05-07T15:35:29;6.90;;;2.40;;
59093;SDS011;44880;52.814;18.270;2023-05-07T15:38:39;6.60;;;2.10;;
59093;SDS011;44880;52.814;18.270;2023-05-07T15:41:11;6.50;;;2.30;;
59093;SDS011;44880;52.814;18.270;2023-05-07T15:44:01;6.60;;;2.50;;
59093;SDS011;44880;52.814;18.270;2023-05-07T15:46:33;7.20;;;2.30;;
59093;SDS011;44880;52.814;18.270;2023-05-07T15:49:16;6.20;;;2.30;;
59093;SDS011;44880;52.814;18.270;2023-05-07T15:52:05;6.60;;;2.20;;
59093;SDS011;44880;52.814;18.270;2023-05-07T15:54:38;7.20;;;2.20;;
59093;SDS011;44880;52.814;18.270;2023-05-07T15:57:33;6.50;;;2.30;;
59093;SDS011;44880;52.814;18.270;2023-05-07T16:00:06;6.00;;;2.10;;
59093;SDS011;44880;52.814;18.270;2023-05-07T16:03:09;6.30;;;2.30;;
59093;SDS011;44880;52.814;18.270;2023-05-07T16:05:41;8.70;;;2.50;;
59093;SDS011;44880;52.814;18.270;2023-05-07T16:08:13;7.00;;;2.40;;
59093;SDS011;44880;52.814;18.270;2023-05-07T16:11:25;6.60;;;2.30;;
59093;SDS011;44880;52.814;18.270;2023-05-07T16:14:47;6.60;;;2.40;;
59093;SDS011;44880;52.814;18.270;2023-05-07T16:17:23;7.90;;;2.50;;
59093;SDS011;44880;52.814;18.270;2023-05-07T16:20:09;6.50;;;2.30;;
59093;SDS011;44880;52.814;18.270;2023-05-07T16:22:50;7.10;;;2.30;;
59093;SDS011;44880;52.814;18.270;2023-05-07T16:28:26;7.80;;;2.20;;
59093;SDS011;44880;52.814;18.270;2023-05-07T16:31:20;6.80;;;2.40;;
59093;SDS011;44880;52.814;18.270;2023-05-07T16:33:53;8.30;;;2.60;;
59093;SDS011;44880;52.814;18.270;2023-05-07T16:36:33;7.10;;;2.20;;
59093;SDS011;44880;52.814;18.270;2023-05-07T16:39:24;8.10;;;2.30;;
59093;SDS011;44880;52.814;18.270;2023-05-07T16:41:56;7.00;;;2.40;;
59093;SDS011;44880;52.814;18.270;2023-05-07T16:44:51;6.90;;;2.40;;
59093;SDS011;44880;52.814;18.270;2023-05-07T16:47:23;7.50;;;2.80;;
59093;SDS011;44880;52.814;18.270;2023-05-07T16:52:56;6.70;;;2.60;;
59093;SDS011;44880;52.814;18.270;2023-05-07T16:55:30;6.70;;;2.50;;
59093;SDS011;44880;52.814;18.270;2023-05-07T16:58:34;6.40;;;2.60;;
59093;SDS011;44880;52.814;18.270;2023-05-07T17:01:07;7.60;;;2.40;;
59093;SDS011;44880;52.814;18.270;2023-05-07T17:04:20;7.40;;;2.70;;
59093;SDS011;44880;52.814;18.270;2023-05-07T17:09:52;7.60;;;2.70;;
59093;SDS011;44880;52.814;18.270;2023-05-07T17:12:36;7.30;;;2.80;;
59093;SDS011;44880;52.814;18.270;2023-05-07T17:15:27;8.10;;;2.80;;
59093;SDS011;44880;52.814;18.270;2023-05-07T17:17:59;7.80;;;3.00;;
59093;SDS011;44880;52.814;18.270;2023-05-07T17:23:39;7.60;;;3.20;;
59093;SDS011;44880;52.814;18.270;2023-05-07T17:29:15;8.60;;;3.40;;
59093;SDS011;44880;52.814;18.270;2023-05-07T17:32:08;8.00;;;3.50;;
59093;SDS011;44880;52.814;18.270;2023-05-07T17:34:40;8.00;;;3.50;;
59093;SDS011;44880;52.814;18.270;2023-05-07T17:37:12;9.00;;;3.50;;
59093;SDS011;44880;52.814;18.270;2023-05-07T17:42:47;8.30;;;3.40;;
59093;SDS011;44880;52.814;18.270;2023-05-07T17:45:33;8.80;;;3.60;;
59093;SDS011;44880;52.814;18.270;2023-05-07T17:48:06;8.70;;;4.10;;
59093;SDS011;44880;52.814;18.270;2023-05-07T17:50:39;10.60;;;4.30;;
59093;SDS011;44880;52.814;18.270;2023-05-07T17:53:34;9.00;;;4.00;;
59093;SDS011;44880;52.814;18.270;2023-05-07T17:56:06;9.60;;;4.10;;
59093;SDS011;44880;52.814;18.270;2023-05-07T17:58:47;9.70;;;4.20;;
59093;SDS011;44880;52.814;18.270;2023-05-07T18:01:46;10.30;;;4.30;;
59093;SDS011;44880;52.814;18.270;2023-05-07T18:13:02;9.60;;;4.90;;
59093;SDS011;44880;52.814;18.270;2023-05-07T18:15:53;11.00;;;4.50;;
59093;SDS011;44880;52.814;18.270;2023-05-07T18:18:26;10.50;;;4.50;;
59093;SDS011;44880;52.814;18.270;2023-05-07T18:21:03;9.70;;;4.40;;
59093;SDS011;44880;52.814;18.270;2023-05-07T18:23:37;10.10;;;4.40;;
59093;SDS011;44880;52.814;18.270;2023-05-07T18:26:11;10.50;;;4.40;;
59093;SDS011;44880;52.814;18.270;2023-05-07T18:28:44;9.70;;;4.50;;
59093;SDS011;44880;52.814;18.270;2023-05-07T18:31:16;10.60;;;4.50;;